createdAt,value
2019-05-29T00:00:20.099Z,2.40
2019-05-29T00:03:25.175Z,2.53
2019-05-29T00:06:29.897Z,2.50
2019-05-29T00:09:35.323Z,2.63
2019-05-29T00:12:40.084Z,2.60
2019-05-29T00:15:44.867Z,2.50
2019-05-29T00:18:49.867Z,2.70
2019-05-29T00:21:54.678Z,2.63
2019-05-29T00:24:59.433Z,2.93
2019-05-29T00:28:04.539Z,2.93
2019-05-29T00:31:10.009Z,2.40
2019-05-29T00:34:15.816Z,2.67
2019-05-29T00:37:21.125Z,3.17
2019-05-29T00:40:25.864Z,3.20
2019-05-29T00:43:30.927Z,3.50
2019-05-29T00:46:35.794Z,3.60
2019-05-29T00:49:40.912Z,3.60
2019-05-29T00:52:46.536Z,3.80
2019-05-29T00:55:52.635Z,3.97
2019-05-29T00:58:57.362Z,4.27
2019-05-29T01:02:02.385Z,4.47
2019-05-29T01:05:07.209Z,5.10
2019-05-29T01:08:12.556Z,5.27
2019-05-29T01:11:17.424Z,5.37
2019-05-29T01:14:22.563Z,6.07
2019-05-29T01:17:27.290Z,5.50
2019-05-29T01:20:32.115Z,6.30
2019-05-29T01:23:37.137Z,6.57
2019-05-29T01:26:42.215Z,6.73
2019-05-29T01:29:46.962Z,7.20
2019-05-29T01:32:52.152Z,6.97
2019-05-29T01:35:57.179Z,7.37
2019-05-29T01:39:02.466Z,7.87
2019-05-29T01:42:07.866Z,7.77
2019-05-29T01:45:13.049Z,7.50
2019-05-29T01:48:18.133Z,7.53
2019-05-29T01:51:23.766Z,7.30
2019-05-29T01:54:29.668Z,7.73
2019-05-29T01:57:35.047Z,8.07
2019-05-29T02:00:39.896Z,8.27
2019-05-29T02:03:44.653Z,9.30
2019-05-29T02:06:49.433Z,7.67
2019-05-29T02:09:54.854Z,8.53
2019-05-29T02:12:59.882Z,8.83
2019-05-29T02:16:05.651Z,10.17
2019-05-29T02:19:10.482Z,9.23
2019-05-29T02:22:15.333Z,8.70
2019-05-29T02:25:22.474Z,9.47
2019-05-29T02:28:28.436Z,9.23
2019-05-29T02:31:33.510Z,8.90
2019-05-29T02:34:38.560Z,9.37
2019-05-29T02:37:43.606Z,9.53
2019-05-29T02:40:48.352Z,9.07
2019-05-29T02:43:53.533Z,8.70
2019-05-29T02:46:58.681Z,9.97
2019-05-29T02:50:04.493Z,9.23
2019-05-29T02:53:09.828Z,10.33
2019-05-29T02:56:14.931Z,10.73
2019-05-29T02:59:21.025Z,9.30
2019-05-29T03:02:27.762Z,9.87
2019-05-29T03:05:32.620Z,11.47
2019-05-29T03:08:37.989Z,12.73
2019-05-29T03:11:43.594Z,12.07
2019-05-29T03:14:48.646Z,13.23
2019-05-29T03:17:53.916Z,12.40
2019-05-29T03:20:58.758Z,13.03
2019-05-29T03:24:04.318Z,11.27
2019-05-29T03:27:09.079Z,11.97
2019-05-29T03:30:15.332Z,11.87
2019-05-29T03:33:20.342Z,11.60
2019-05-29T03:36:28.383Z,11.77
2019-05-29T03:39:32.351Z,11.37
2019-05-29T03:42:39.056Z,12.13
2019-05-29T03:45:45.046Z,12.43
2019-05-29T03:48:49.800Z,11.43
2019-05-29T03:51:54.810Z,11.67
2019-05-29T03:54:59.794Z,11.27
2019-05-29T03:58:04.729Z,11.30
2019-05-29T04:01:09.467Z,10.47
2019-05-29T04:04:14.227Z,10.93
2019-05-29T04:07:19.273Z,11.47
2019-05-29T04:10:34.194Z,10.87
2019-05-29T04:13:38.759Z,11.63
2019-05-29T04:16:59.011Z,11.13
2019-05-29T04:19:52.745Z,10.60
2019-05-29T04:22:59.861Z,10.57
2019-05-29T04:26:06.086Z,10.40
2019-05-29T04:29:12.581Z,10.27
2019-05-29T04:32:17.601Z,10.40
2019-05-29T04:35:22.393Z,10.07
2019-05-29T04:38:28.632Z,9.13
2019-05-29T04:41:34.704Z,9.07
2019-05-29T04:44:41.146Z,8.93
2019-05-29T04:47:46.446Z,8.87
2019-05-29T04:50:51.273Z,9.03
2019-05-29T04:53:56.042Z,9.17
2019-05-29T04:57:00.774Z,8.50
2019-05-29T05:00:05.823Z,8.03
2019-05-29T05:03:10.586Z,7.97
2019-05-29T05:06:15.333Z,7.40
2019-05-29T05:09:20.372Z,7.43
2019-05-29T05:12:25.680Z,7.50
2019-05-29T05:15:31.732Z,7.87
2019-05-29T05:18:37.903Z,8.50
2019-05-29T05:21:42.777Z,7.67
2019-05-29T05:24:47.568Z,7.27
2019-05-29T05:27:52.329Z,7.10
2019-05-29T05:30:57.143Z,7.40
2019-05-29T05:34:02.023Z,7.40
2019-05-29T05:37:06.860Z,6.73
2019-05-29T05:40:11.868Z,7.00
2019-05-29T05:43:24.173Z,7.03
2019-05-29T05:46:24.836Z,6.77
2019-05-29T05:49:31.244Z,6.50
2019-05-29T05:52:37.407Z,7.30
2019-05-29T05:55:42.603Z,7.03
2019-05-29T05:58:47.495Z,7.20
2019-05-29T06:01:52.642Z,8.07
2019-05-29T06:04:57.643Z,8.27
2019-05-29T06:08:02.519Z,8.43
2019-05-29T06:11:07.295Z,7.40
2019-05-29T06:14:12.051Z,8.00
2019-05-29T06:17:17.083Z,8.23
2019-05-29T06:20:22.348Z,7.83
2019-05-29T06:23:27.203Z,8.07
2019-05-29T06:26:32.780Z,7.97
2019-05-29T06:29:37.608Z,8.07
2019-05-29T06:32:43.621Z,7.20
2019-05-29T06:35:48.357Z,7.17
2019-05-29T06:38:53.114Z,7.37
2019-05-29T06:41:58.224Z,7.33
2019-05-29T06:45:03.792Z,7.30
2019-05-29T06:48:09.745Z,7.43
2019-05-29T06:51:14.479Z,7.27
2019-05-29T06:54:20.754Z,7.10
2019-05-29T06:57:26.100Z,7.00
2019-05-29T07:00:35.566Z,6.97
2019-05-29T07:03:39.737Z,6.33
2019-05-29T07:06:44.907Z,7.10
2019-05-29T07:09:49.925Z,6.60
2019-05-29T07:12:54.668Z,7.77
2019-05-29T07:15:59.869Z,6.97
2019-05-29T07:22:11.279Z,6.57
2019-05-29T07:25:16.182Z,6.37
2019-05-29T07:28:20.967Z,6.53
2019-05-29T07:31:25.710Z,6.87
2019-05-29T07:34:30.758Z,6.23
2019-05-29T07:37:37.714Z,7.10
2019-05-29T07:40:45.088Z,5.57
2019-05-29T07:43:50.191Z,6.20
2019-05-29T07:46:55.306Z,6.73
2019-05-29T07:50:00.073Z,7.13
2019-05-29T07:53:09.120Z,6.50
2019-05-29T07:56:22.540Z,6.70
2019-05-29T07:59:21.991Z,6.17
2019-05-29T08:02:27.114Z,6.40
2019-05-29T08:05:31.932Z,6.87
2019-05-29T08:08:37.021Z,6.40
2019-05-29T08:11:41.818Z,6.27
2019-05-29T08:14:47.810Z,6.33
2019-05-29T08:17:52.786Z,6.10
2019-05-29T08:20:57.788Z,5.83
2019-05-29T08:24:02.533Z,5.50
2019-05-29T08:27:07.353Z,6.43
2019-05-29T08:30:12.265Z,5.77
2019-05-29T08:33:17.002Z,5.63
2019-05-29T08:36:22.202Z,5.87
2019-05-29T08:39:36.127Z,6.50
2019-05-29T08:42:34.201Z,6.80
2019-05-29T08:45:39.353Z,6.30
2019-05-29T08:48:45.771Z,6.60
2019-05-29T08:51:52.328Z,6.63
2019-05-29T08:54:57.100Z,6.13
2019-05-29T08:58:01.863Z,6.13
2019-05-29T09:01:06.696Z,7.07
2019-05-29T09:04:11.805Z,7.33
2019-05-29T09:07:16.620Z,7.17
2019-05-29T09:10:21.608Z,7.43
2019-05-29T09:13:26.333Z,7.20
2019-05-29T09:16:31.512Z,7.40
2019-05-29T09:19:39.313Z,7.40
2019-05-29T09:22:44.374Z,6.73
2019-05-29T09:25:49.470Z,6.53
2019-05-29T09:28:54.716Z,6.37
2019-05-29T09:31:59.445Z,6.77
2019-05-29T09:35:05.185Z,6.43
2019-05-29T09:38:10.141Z,5.97
2019-05-29T09:41:16.294Z,5.90
2019-05-29T09:44:34.028Z,5.73
2019-05-29T09:47:28.331Z,5.53
2019-05-29T09:50:49.505Z,5.37
2019-05-29T09:53:39.963Z,5.40
2019-05-29T09:56:44.974Z,5.40
2019-05-29T09:59:49.836Z,4.70
2019-05-29T10:02:55.608Z,5.30
2019-05-29T10:06:01.527Z,5.13
2019-05-29T10:09:08.017Z,4.80
2019-05-29T10:12:12.876Z,4.77
2019-05-29T10:15:20.442Z,4.47
2019-05-29T10:18:32.076Z,5.00
2019-05-29T10:21:40.245Z,4.63
2019-05-29T10:24:39.045Z,3.43
2019-05-29T10:27:44.125Z,3.10
2019-05-29T10:30:50.224Z,2.90
2019-05-29T10:33:55.277Z,3.37
2019-05-29T10:37:00.047Z,3.70
2019-05-29T10:40:05.599Z,3.13
2019-05-29T10:43:10.488Z,3.37
2019-05-29T10:46:15.748Z,2.93
2019-05-29T10:49:20.701Z,3.20
2019-05-29T10:52:25.534Z,3.53
2019-05-29T10:55:31.344Z,2.90
2019-05-29T10:58:48.619Z,3.13
2019-05-29T11:01:42.543Z,2.97
2019-05-29T11:04:51.584Z,2.83
2019-05-29T11:07:54.099Z,2.63
2019-05-29T11:10:59.899Z,2.77
2019-05-29T11:14:04.734Z,2.40
2019-05-29T11:17:10.082Z,2.70
2019-05-29T11:20:15.742Z,2.20
2019-05-29T11:23:20.466Z,2.53
2019-05-29T11:26:25.670Z,1.97
2019-05-29T11:29:30.745Z,2.20
2019-05-29T11:32:35.866Z,2.17
2019-05-29T11:35:57.183Z,2.10
2019-05-29T11:38:47.183Z,2.50
2019-05-29T11:41:52.710Z,2.10
2019-05-29T11:44:59.420Z,2.30
2019-05-29T11:48:05.313Z,2.17
2019-05-29T11:51:10.281Z,2.40
2019-05-29T11:54:15.040Z,2.60
2019-05-29T11:57:19.817Z,1.90
2019-05-29T12:00:25.192Z,1.57
2019-05-29T12:03:29.926Z,1.60
2019-05-29T12:06:35.185Z,1.60
2019-05-29T12:09:40.464Z,1.70
2019-05-29T12:12:45.493Z,1.33
2019-05-29T12:15:51.502Z,1.13
2019-05-29T12:18:57.731Z,1.20
2019-05-29T12:22:03.086Z,0.90
2019-05-29T12:25:08.673Z,0.90
2019-05-29T12:28:13.691Z,0.90
2019-05-29T12:31:19.210Z,0.70
2019-05-29T12:34:24.388Z,0.90
2019-05-29T12:37:29.243Z,1.10
2019-05-29T12:40:34.066Z,0.97
2019-05-29T12:43:40.087Z,0.90
2019-05-29T12:46:44.889Z,0.90
2019-05-29T12:49:49.730Z,1.07
2019-05-29T12:52:55.722Z,1.03
2019-05-29T12:56:02.598Z,1.03
2019-05-29T12:59:07.594Z,0.90
2019-05-29T13:02:12.852Z,1.03
2019-05-29T13:05:20.687Z,0.87
2019-05-29T13:08:25.173Z,1.00
2019-05-29T13:11:30.551Z,1.27
2019-05-29T13:14:35.745Z,1.10
2019-05-29T13:17:40.779Z,1.03
2019-05-29T13:20:45.582Z,1.10
2019-05-29T13:23:50.383Z,1.10
2019-05-29T13:26:55.564Z,0.93
2019-05-29T13:30:03.540Z,1.10
2019-05-29T13:33:08.836Z,1.50
2019-05-29T13:36:13.622Z,1.37
2019-05-29T13:39:18.480Z,1.27
2019-05-29T13:42:23.385Z,1.30
2019-05-29T13:45:28.207Z,1.20
2019-05-29T13:48:33.243Z,0.90
2019-05-29T13:51:38.332Z,1.10
2019-05-29T13:54:44.069Z,1.10
2019-05-29T13:57:48.828Z,1.10
2019-05-29T14:00:53.956Z,1.03
2019-05-29T14:04:00.070Z,0.90
2019-05-29T14:07:06.606Z,1.10
2019-05-29T14:10:11.935Z,1.20
2019-05-29T14:13:16.797Z,1.10
2019-05-29T14:16:21.792Z,0.90
2019-05-29T14:19:26.623Z,0.97
2019-05-29T14:22:32.167Z,1.10
2019-05-29T14:25:36.947Z,1.00
2019-05-29T14:28:41.718Z,0.90
2019-05-29T14:31:46.784Z,0.70
2019-05-29T14:34:51.923Z,0.77
2019-05-29T14:37:56.738Z,0.80
2019-05-29T14:41:01.756Z,0.90
2019-05-29T14:44:07.815Z,0.70
2019-05-29T14:47:13.436Z,0.80
2019-05-29T14:50:18.688Z,0.73
2019-05-29T14:53:23.565Z,1.00
2019-05-29T14:56:28.473Z,0.80
2019-05-29T14:59:34.406Z,0.70
2019-05-29T15:02:39.471Z,0.70
2019-05-29T15:05:44.276Z,0.60
2019-05-29T15:08:49.284Z,0.40
2019-05-29T15:11:54.427Z,0.60
2019-05-29T15:14:59.884Z,0.57
2019-05-29T15:18:04.979Z,0.60
2019-05-29T15:21:11.158Z,0.80
2019-05-29T15:24:16.283Z,0.70
2019-05-29T15:27:21.037Z,0.80
2019-05-29T15:30:26.088Z,0.90
2019-05-29T15:33:30.835Z,0.80
2019-05-29T15:36:35.558Z,0.70
2019-05-29T15:39:40.666Z,0.70
2019-05-29T15:42:45.397Z,1.10
2019-05-29T15:45:50.172Z,1.00
2019-05-29T15:48:54.916Z,1.00
2019-05-29T15:51:59.683Z,1.00
2019-05-29T15:55:21.295Z,1.20
2019-05-29T15:58:11.433Z,1.10
2019-05-29T16:01:17.844Z,1.27
2019-05-29T16:04:23.739Z,1.10
2019-05-29T16:07:28.514Z,1.50
2019-05-29T16:10:33.331Z,1.47
2019-05-29T16:13:38.402Z,1.30
2019-05-29T16:16:43.213Z,1.20
2019-05-29T16:19:47.958Z,1.00
2019-05-29T16:22:52.791Z,1.00
2019-05-29T16:25:57.561Z,1.33
2019-05-29T16:29:02.925Z,1.47
2019-05-29T16:32:07.789Z,1.37
2019-05-29T16:35:13.530Z,1.43
2019-05-29T16:38:19.411Z,1.30
2019-05-29T16:41:24.728Z,1.17
2019-05-29T16:44:29.978Z,1.00
2019-05-29T16:47:35.048Z,1.20
2019-05-29T16:50:40.361Z,0.90
2019-05-29T16:53:48.739Z,1.10
2019-05-29T16:56:53.625Z,1.20
2019-05-29T16:59:58.428Z,1.10
2019-05-29T17:03:03.309Z,0.90
2019-05-29T17:06:08.101Z,0.90
2019-05-29T17:09:14.516Z,0.83
2019-05-29T17:12:20.426Z,1.00
2019-05-29T17:15:25.363Z,1.00
2019-05-29T17:18:30.222Z,1.00
2019-05-29T17:21:35.451Z,1.20
2019-05-29T17:24:40.299Z,0.90
2019-05-29T17:27:45.245Z,1.00
2019-05-29T17:30:50.075Z,0.80
2019-05-29T17:33:55.126Z,1.00
2019-05-29T17:36:59.999Z,1.00
2019-05-29T17:40:05.866Z,0.90
2019-05-29T17:43:10.689Z,1.00
2019-05-29T17:46:15.523Z,1.07
2019-05-29T17:49:24.941Z,0.80
2019-05-29T17:52:26.852Z,1.00
2019-05-29T17:55:31.920Z,0.90
2019-05-29T17:58:36.702Z,0.97
2019-05-29T18:01:41.530Z,1.10
2019-05-29T18:04:46.673Z,1.00
2019-05-29T18:07:51.589Z,1.10
2019-05-29T18:10:56.466Z,1.30
2019-05-29T18:14:05.015Z,1.07
2019-05-29T18:17:08.320Z,1.00
2019-05-29T18:20:14.805Z,1.03
2019-05-29T18:23:21.612Z,0.90
2019-05-29T18:26:42.606Z,1.20
2019-05-29T18:29:33.517Z,1.00
2019-05-29T18:32:38.707Z,1.37
2019-05-29T18:35:43.847Z,1.00
2019-05-29T18:38:48.618Z,1.00
2019-05-29T18:41:53.749Z,1.10
2019-05-29T18:44:59.859Z,1.03
2019-05-29T18:48:04.823Z,1.00
2019-05-29T18:51:09.693Z,1.60
2019-05-29T18:54:15.297Z,1.20
2019-05-29T18:57:20.824Z,1.70
2019-05-29T19:00:25.791Z,1.30
2019-05-29T19:03:32.611Z,1.50
2019-05-29T19:06:37.388Z,1.50
2019-05-29T19:09:42.449Z,1.47
2019-05-29T19:12:47.504Z,1.40
2019-05-29T19:15:52.352Z,1.20
2019-05-29T19:18:57.477Z,1.30
2019-05-29T19:22:02.233Z,1.60
2019-05-29T19:25:07.302Z,1.40
2019-05-29T19:28:12.316Z,1.33
2019-05-29T19:31:17.228Z,1.27
2019-05-29T19:34:23.154Z,1.30
2019-05-29T19:37:28.064Z,1.40
2019-05-29T19:40:34.546Z,1.60
2019-05-29T19:43:39.406Z,1.80
2019-05-29T19:46:53.542Z,1.70
2019-05-29T19:49:50.593Z,1.50
2019-05-29T19:52:55.457Z,1.80
2019-05-29T19:56:00.262Z,1.70
2019-05-29T19:59:05.167Z,1.90
2019-05-29T20:02:10.392Z,1.60
2019-05-29T20:05:15.808Z,1.70
2019-05-29T20:08:20.535Z,2.10
2019-05-29T20:11:25.261Z,2.10
2019-05-29T20:14:31.745Z,2.00
2019-05-29T20:17:36.763Z,2.50
2019-05-29T20:20:42.470Z,2.17
2019-05-29T20:23:47.277Z,2.20
2019-05-29T20:26:52.010Z,1.70
2019-05-29T20:29:56.765Z,1.63
2019-05-29T20:33:01.524Z,1.60
2019-05-29T20:36:06.333Z,1.67
2019-05-29T20:39:11.081Z,1.60
2019-05-29T20:42:15.798Z,1.50
2019-05-29T20:45:20.695Z,1.90
2019-05-29T20:48:25.738Z,2.13
2019-05-29T20:51:30.563Z,2.13
2019-05-29T20:54:35.617Z,2.00
2019-05-29T20:57:40.371Z,2.17
2019-05-29T21:00:45.203Z,1.80
2019-05-29T21:03:50.018Z,2.03
2019-05-29T21:06:54.779Z,1.80
2019-05-29T21:09:59.748Z,1.77
2019-05-29T21:13:04.643Z,1.80
2019-05-29T21:16:09.358Z,2.03
2019-05-29T21:19:14.347Z,1.70
2019-05-29T21:22:19.097Z,1.80
2019-05-29T21:25:24.496Z,1.90
2019-05-29T21:28:40.011Z,1.97
2019-05-29T21:31:35.769Z,1.93
2019-05-29T21:34:41.851Z,2.30
2019-05-29T21:37:46.779Z,2.23
2019-05-29T21:40:53.094Z,2.20
2019-05-29T21:43:58.182Z,2.50
2019-05-29T21:47:03.044Z,2.20
2019-05-29T21:50:09.414Z,2.30
2019-05-29T21:53:14.275Z,2.10
2019-05-29T21:56:19.095Z,2.40
2019-05-29T21:59:23.826Z,2.20
2019-05-29T22:02:28.786Z,2.27
2019-05-29T22:05:33.802Z,2.20
2019-05-29T22:08:38.837Z,2.00
2019-05-29T22:11:44.161Z,2.00
2019-05-29T22:14:50.718Z,2.20
2019-05-29T22:17:57.069Z,2.37
2019-05-29T22:21:02.193Z,2.40
2019-05-29T22:24:07.722Z,2.30
2019-05-29T22:27:12.830Z,2.30
2019-05-29T22:30:18.336Z,2.40
2019-05-29T22:33:23.560Z,2.13
2019-05-29T22:36:28.761Z,2.00
2019-05-29T22:39:33.616Z,2.00
2019-05-29T22:42:38.712Z,2.20
2019-05-29T22:45:43.599Z,2.27
2019-05-29T22:48:48.356Z,2.40
2019-05-29T22:51:53.667Z,2.00
2019-05-29T22:54:59.925Z,2.50
2019-05-29T22:58:05.036Z,2.30
2019-05-29T23:01:09.872Z,2.20
2019-05-29T23:04:14.922Z,2.27
2019-05-29T23:07:19.650Z,2.40
2019-05-29T23:10:24.508Z,2.53
2019-05-29T23:13:29.314Z,2.47
2019-05-29T23:16:34.072Z,2.50
2019-05-29T23:19:39.138Z,2.20
2019-05-29T23:22:43.916Z,2.30
2019-05-29T23:25:50.026Z,2.43
2019-05-29T23:28:55.093Z,2.30
2019-05-29T23:32:00.998Z,2.50
2019-05-29T23:35:06.227Z,2.40
2019-05-29T23:38:10.953Z,2.43
2019-05-29T23:41:16.093Z,2.47
2019-05-29T23:44:21.232Z,2.70
2019-05-29T23:47:25.994Z,2.43
2019-05-29T23:50:30.878Z,2.47
2019-05-29T23:53:35.635Z,2.77
2019-05-29T23:56:40.506Z,2.50
2019-05-29T23:59:45.550Z,2.50
